PST,Max TemperatureF,Mean TemperatureF,Min TemperatureF,Max Dew PointF,MeanDew PointF,Min DewpointF,Max Humidity, Mean Humidity, Min Humidity, Max Sea Level PressureIn, Mean Sea Level PressureIn, Min Sea Level PressureIn, Max VisibilityMiles, Mean VisibilityMiles, Min VisibilityMiles, Max Wind SpeedMPH, Mean Wind SpeedMPH, Max Gust SpeedMPH,PrecipitationIn, CloudCover, Events, WindDirDegrees
2011-11-1,80,59,38,52,40,25,79,48,16,29.96,29.93,29.88,10,9,5,13,3,21,0.00,0,,305
2011-11-2,80,59,38,41,18,4,96,51,6,30.09,30.02,29.97,10,8,2,25,13,31,0.00,0,,69
2011-11-3,78,59,39,54,37,16,72,43,14,30.05,29.96,29.89,10,10,7,15,5,17,0.00,3,,216
2011-11-4,56,52,47,52,48,44,100,89,77,29.91,29.79,29.70,10,7,2,25,9,31,0.66,8,Rain,220
2011-11-5,60,47,34,45,40,35,100,72,44,30.04,29.94,29.84,10,5,0,15,4,18,0.00,2,Fog,87
2011-11-6,57,47,37,50,44,37,100,81,61,30.05,30.01,29.98,10,7,1,24,3,28,0.20,6,Rain,228
2011-11-7,61,50,38,45,40,37,100,72,44,30.21,30.12,30.01,10,6,0,24,3,32,0.00,3,Fog,51
2011-11-8,68,49,30,40,32,21,100,59,18,30.24,30.20,30.15,10,5,0,14,2,17,0.00,0,Fog,102
2011-11-9,74,59,43,25,17,12,49,29,9,30.22,30.16,30.11,10,10,10,23,11,29,0.00,0,,68
2011-11-10,73,65,57,33,23,16,21,19,16,30.15,30.07,30.00,10,10,10,18,10,24,0.00,1,,67
2011-11-11,75,60,44,40,33,18,71,42,12,29.99,29.91,29.83,10,10,10,26,3,40,0.00,1,,141
2011-11-12,58,49,40,54,46,35,100,78,56,29.86,29.81,29.74,10,8,3,13,4,18,0.71,6,Rain,100
2011-11-13,70,55,39,51,45,40,96,69,42,30.00,29.91,29.83,10,7,0,14,4,18,0.00,1,Fog,231
2011-11-14,68,53,37,54,44,37,100,74,48,30.02,29.97,29.91,10,5,0,15,3,20,0.00,3,Fog,270
2011-11-15,67,60,52,52,47,42,100,76,52,30.09,30.05,29.98,10,5,0,10,2,24,0.00,5,Fog,302
2011-11-16,72,56,39,54,45,39,100,75,49,30.14,30.11,30.05,10,2,0,12,3,14,0.00,2,Fog,302
2011-11-17,74,56,37,50,41,36,100,64,27,30.13,30.07,29.98,10,4,0,13,3,28,0.00,1,Fog,278
2011-11-18,57,46,34,50,43,34,100,89,77,30.00,29.96,29.93,10,4,0,8,2,23,0.00,6,Fog,174
2011-11-19,59,54,49,50,46,43,100,83,66,29.97,29.94,29.90,10,9,5,14,8,18,T,8,Rain,210
2011-11-20,61,52,42,52,47,42,100,79,57,30.02,29.97,29.94,10,6,1,15,5,18,T,7,Rain,169
2011-11-21,60,53,45,49,43,34,100,78,55,30.25,30.15,29.99,10,5,0,14,3,17,0.09,5,Fog-Rain,280
2011-11-22,68,49,30,45,35,30,100,69,37,30.25,30.20,30.08,10,4,0,9,2,12,0.00,1,Fog,12
2011-11-23,68,49,30,52,41,29,100,67,34,30.08,30.02,29.96,10,5,0,28,3,29,0.00,2,Fog,295
2011-11-24,60,53,46,49,45,37,100,76,51,30.12,30.02,29.96,10,5,0,12,3,15,T,7,Fog-Rain,294
2011-11-25,66,49,32,49,38,32,100,74,48,30.24,30.18,30.12,10,3,0,13,2,,0.00,1,Fog,75
2011-11-26,81,56,31,46,28,16,100,56,12,30.28,30.24,30.20,10,8,1,20,5,24,0.00,0,,66
2011-11-27,81,62,43,30,23,15,53,32,10,30.27,30.22,30.17,10,10,10,22,9,28,0.00,0,,88
2011-11-28,82,60,38,42,35,27,65,40,15,30.15,30.11,30.07,10,10,10,9,3,13,0.00,0,,304
2011-11-29,81,60,39,48,41,31,92,54,16,30.09,30.05,30.01,10,10,10,12,2,14,0.00,0,,344
2011-11-30,75,55,34,50,44,30,100,60,20,30.04,29.86,29.72,10,8,5,14,3,18,0.00,4,Rain,175